Alpine Haven, Vermont
Current Conditions -  °F | °C
As of 8:35 AM on Thursday 18 Dec 2014 (Local Time) from KEFK Reporting Station
Overcast Overcast  
Wind Chill: 21°   Ceiling: 3000
Heat Index: 30°   Visibility: 7mi
Dew Point: 27°   Wind: 10mph
Humidity: 87%   Direction: 290°WNW
Pressure: 29.76"   Gusts: 18mph
Location:  44.8557°N, 72.6016°W
Report Text: KEFK 181335Z AUTO 29009G16KT 7SM SCT014 OVC030 M01/M03 A2976 RMK AO2 T10111030
Loading
Personal Weather Stations






























Interactive Weather Map New forecast layout! Learn more

10-Day Weather Forecast

Advertisements
Track Severe Weather on mobile